VTUJ

Details ICAO VTUJ
Name Surin
Region Thailand
Timezone Asia/Bangkok (UTC+7.0)
Plans Departing 1
Arriving 1
Stats Elevation 478 ft / 146 m (AMSL)
Location 14.868263° 103.498255°
Runways 1
Magnetic Variation 0.722° W
Sunrise 2017-12-11 23:23:14 UTC / 2017-12-12 06:23:14 Local
Sunset 2017-12-12 10:38:50 UTC / 2017-12-12 17:38:50 Local
Advertisement - Login to hide

Runways

ID Width Length Bearing (true) Bearing (mag) Surface Threshold Offset Overrun Length
01 115 ft / 35 m 5,083 ft / 1,549 m 7.47° 8.19° Asphalt 0 ft / 0 m 590 ft / 180 m
19 115 ft / 35 m 5,083 ft / 1,549 m 187.47° 188.19° Asphalt 0 ft / 0 m 0 ft / 0 m

Map

Weather


0- 5 10 15 20 25 30 35+ Temperature / ° C

Clouds and Precipitation
Forecast for 2017-12-12 00:00 UTC. Updated 20 minutes ago

Ground ~20,000 ft ~40,000 ft Winds

METAR

Not found

TAF

TAF VTUJ 111700Z 1118/1218 06003KT 6000 FEW025 BECMG 1201/1203 04005KT 9000 SCT025

Frequencies

Tower 122.70 MHz TWR
Approach 123.60 MHz BURI RAM APP
Warning: Do not use this data for real-world aviation or navigation. No guarantee of current accuracy is given.